Time;durP1;ratioP1;P1;durP2;ratioP2;P2;SDS_P1;SDS_P2;PMS_P1;PMS_P2;Temp;Humidity;BMP_temperature;BMP_pressure;BME280_temperature;BME280_humidity;BME280_pressure;Samples;Min_cycle;Max_cycle;Signal;HPM_P1;HPM_P2
2021/10/17 00:02:11;;;;;;;71.37;33.38;;;;;;;10.94;82.16;100769.62;2776819;85;21022;-69
2021/10/17 00:06:13;;;;;;;163.30;75.57;;;;;;;10.96;81.87;100778.83;2776731;85;21070;-69
2021/10/17 00:10:19;;;;;;;137.47;67.05;;;;;;;11.00;82.62;100768.31;2776669;85;21027;-69
2021/10/17 00:14:20;;;;;;;;;;;;;;;11.08;82.11;100771.22;2779208;85;21023;-69
2021/10/17 00:18:22;;;;;;;93.80;49.00;;;;;;;11.09;81.68;100762.77;2776673;85;20121;-68
2021/10/17 00:22:24;;;;;;;97.70;51.73;;;;;;;11.11;81.93;100766.16;2776570;85;20988;-68
2021/10/17 00:26:25;;;;;;;61.45;38.25;;;;;;;11.20;81.96;100765.94;2776796;85;21054;-68
2021/10/17 00:30:27;;;;;;;73.37;44.58;;;;;;;11.24;81.39;100766.92;2776572;85;20971;-68
2021/10/17 00:34:29;;;;;;;68.87;43.00;;;;;;;11.29;80.68;100766.08;2776633;85;21066;-68
2021/10/17 00:38:30;;;;;;;52.30;28.62;;;;;;;11.29;80.64;100760.75;2776630;85;21113;-68
2021/10/17 00:42:32;;;;;;;60.52;31.27;;;;;;;11.31;80.63;100757.11;2776703;85;21023;-68
2021/10/17 00:46:34;;;;;;;73.37;35.80;;;;;;;11.32;79.94;100764.14;2776776;85;21019;-68
2021/10/17 00:50:36;;;;;;;42.73;27.82;;;;;;;11.30;80.29;100760.28;2776436;85;21050;-69
2021/10/17 00:54:38;;;;;;;68.37;35.80;;;;;;;11.31;79.91;100757.11;2776378;85;20984;-68
2021/10/17 00:58:39;;;;;;;76.10;40.63;;;;;;;11.20;80.48;100753.48;2776543;85;21006;-69
2021/10/17 01:02:41;;;;;;;75.37;43.17;;;;;;;11.25;80.87;100755.77;2775758;85;21051;-69
2021/10/17 01:06:43;;;;;;;68.42;36.13;;;;;;;11.33;80.90;100752.05;2776642;85;21026;-68
2021/10/17 01:10:45;;;;;;;41.77;25.12;;;;;;;11.35;80.54;100746.11;2775990;85;21101;-69
2021/10/17 01:14:47;;;;;;;53.68;31.00;;;;;;;11.33;79.94;100743.20;2777076;85;21022;-70
2021/10/17 01:18:49;;;;;;;64.80;34.18;;;;;;;11.33;80.35;100743.20;2776125;85;21070;-70
2021/10/17 01:22:51;;;;;;;116.35;55.35;;;;;;;11.33;80.39;100741.86;2776058;85;20995;-69
2021/10/17 01:26:52;;;;;;;36.33;18.77;;;;;;;11.36;80.68;100737.63;2769139;85;20992;-69
2021/10/17 01:30:54;;;;;;;189.60;84.25;;;;;;;11.34;80.07;100723.11;2766388;85;21043;-68
2021/10/17 01:34:56;;;;;;;163.50;69.35;;;;;;;11.39;80.16;100723.59;2766796;85;21112;-68
2021/10/17 01:38:57;;;;;;;88.85;45.52;;;;;;;11.39;79.39;100721.39;2766626;85;21016;-68
2021/10/17 01:42:59;;;;;;;63.23;33.88;;;;;;;11.39;79.88;100716.06;2775927;85;21031;-68
2021/10/17 01:47:01;;;;;;;81.10;34.60;;;;;;;11.44;79.37;100715.24;2776442;85;21015;-68
2021/10/17 01:51:03;;;;;;;60.10;37.00;;;;;;;11.43;78.94;100713.55;2780370;85;21459;-68
2021/10/17 01:55:06;;;;;;;23.90;14.43;;;;;;;11.41;79.11;100707.00;2783844;85;21026;-68
2021/10/17 01:59:08;;;;;;;14.58;8.45;;;;;;;11.40;78.79;100709.80;2783832;85;21070;-69
2021/10/17 02:03:10;;;;;;;13.28;10.32;;;;;;;11.36;79.44;100720.31;2784224;85;21022;-68
2021/10/17 02:07:11;;;;;;;17.12;12.63;;;;;;;11.40;79.34;100714.63;2784015;85;21070;-68
2021/10/17 02:11:13;;;;;;;29.70;14.85;;;;;;;11.42;79.58;100715.85;2783772;85;21014;-68
2021/10/17 02:15:15;;;;;;;28.60;16.45;;;;;;;11.39;79.62;100718.27;2784038;85;20959;-68
2021/10/17 02:19:16;;;;;;;26.75;15.93;;;;;;;11.36;79.24;100705.19;2784916;85;21010;-68
2021/10/17 02:23:18;;;;;;;27.73;14.38;;;;;;;11.31;79.69;100696.72;2784620;85;21014;-69
2021/10/17 02:27:20;;;;;;;17.35;9.48;;;;;;;11.37;79.95;100694.03;2784634;85;21098;-69
2021/10/17 02:31:21;;;;;;;14.83;8.45;;;;;;;11.35;79.39;100690.66;2784399;85;21046;-68
2021/10/17 02:35:23;;;;;;;14.95;11.18;;;;;;;11.26;79.35;100694.41;2784129;85;21027;-68
2021/10/17 02:39:24;;;;;;;11.57;8.38;;;;;;;11.20;79.45;100689.58;2783969;85;21073;-68
2021/10/17 02:43:26;;;;;;;14.28;9.43;;;;;;;11.23;79.66;100690.66;2783966;85;21356;-68
2021/10/17 02:47:28;;;;;;;12.95;9.75;;;;;;;11.22;79.53;100692.10;2784045;85;20999;-68
2021/10/17 02:51:30;;;;;;;13.68;9.30;;;;;;;11.13;79.27;100688.34;2782841;85;21098;-68
2021/10/17 02:55:31;;;;;;;16.50;11.73;;;;;;;10.94;79.78;100687.11;2783105;85;21007;-68
2021/10/17 02:59:33;;;;;;;14.33;8.90;;;;;;;10.83;80.75;100688.44;2783473;85;21035;-68
2021/10/17 03:03:36;;;;;;;13.22;7.62;;;;;;;10.81;81.31;100685.88;2781444;85;21051;-68
2021/10/17 03:07:38;;;;;;;13.03;8.48;;;;;;;10.92;81.74;100682.89;2780871;85;20999;-68
2021/10/17 03:11:39;;;;;;;10.80;7.17;;;;;;;11.06;81.49;100677.31;2781146;85;21050;-68
2021/10/17 03:15:41;;;;;;;10.25;7.25;;;;;;;11.09;80.40;100688.22;2780762;85;21054;-69
2021/10/17 03:19:43;;;;;;;12.33;7.08;;;;;;;11.07;80.68;100685.67;2780745;85;21654;-68
2021/10/17 03:23:45;;;;;;;11.90;7.55;;;;;;;11.11;80.39;100695.61;2780910;85;21051;-68
2021/10/17 03:27:46;;;;;;;14.95;9.08;;;;;;;11.15;80.39;100683.74;2781038;85;21034;-68
2021/10/17 03:31:49;;;;;;;9.03;7.25;;;;;;;11.23;80.30;100684.01;2781015;85;21062;-68
2021/10/17 03:35:50;;;;;;;12.15;7.40;;;;;;;11.25;79.96;100684.73;2780897;85;21035;-68
2021/10/17 03:39:52;;;;;;;10.48;8.48;;;;;;;11.27;80.15;100681.45;2781209;85;21046;-68
2021/10/17 03:43:54;;;;;;;12.18;8.40;;;;;;;11.35;80.03;100680.00;2781280;85;21011;-68
2021/10/17 03:47:55;;;;;;;17.77;8.05;;;;;;;11.41;79.75;100680.86;2781372;85;21043;-68
2021/10/17 03:51:57;;;;;;;14.58;8.70;;;;;;;11.45;78.94;100672.98;2786586;85;21086;-68
2021/10/17 03:55:58;;;;;;;13.88;9.05;;;;;;;11.41;78.93;100674.20;2774128;85;21023;-68
2021/10/17 04:00:00;;;;;;;9.70;8.73;;;;;;;11.29;78.37;100665.34;2774034;86;21047;-68
2021/10/17 04:04:02;;;;;;;18.50;9.38;;;;;;;11.13;78.67;100669.70;2773906;86;21070;-67
2021/10/17 04:08:04;;;;;;;13.18;9.43;;;;;;;10.99;78.74;100671.62;2773592;85;21054;-68
2021/10/17 04:12:06;;;;;;;14.65;8.45;;;;;;;10.92;79.61;100674.41;2775072;85;21059;-68
2021/10/17 04:16:08;;;;;;;15.00;9.93;;;;;;;10.99;79.88;100675.61;2775066;85;21435;-68
2021/10/17 04:20:11;;;;;;;15.50;8.40;;;;;;;11.08;80.16;100671.89;2776200;85;21036;-68
2021/10/17 04:24:12;;;;;;;12.73;9.20;;;;;;;11.12;79.92;100674.66;2774166;85;21027;-68
2021/10/17 04:28:14;;;;;;;13.93;8.88;;;;;;;11.17;79.64;100676.48;2774115;86;21054;-68
2021/10/17 04:32:15;;;;;;;11.80;8.90;;;;;;;11.26;79.28;100680.23;2773384;85;21063;-68
2021/10/17 04:36:17;;;;;;;18.32;7.85;;;;;;;11.32;79.45;100672.25;2791393;85;21017;-67
2021/10/17 04:40:21;;;;;;;13.22;9.23;;;;;;;11.38;79.02;100663.30;2800958;84;21038;-68
2021/10/17 04:44:22;;;;;;;14.63;10.43;;;;;;;11.41;77.91;100668.88;2798811;84;21007;-68
2021/10/17 04:48:24;;;;;;;13.75;8.53;;;;;;;11.33;78.27;100668.62;2785845;85;21035;-68
2021/10/17 04:52:25;;;;;;;9.75;8.28;;;;;;;11.35;78.08;100666.21;2788282;85;21105;-68
2021/10/17 04:56:27;;;;;;;12.33;9.55;;;;;;;11.32;78.57;100672.25;2794157;84;21105;-68
2021/10/17 05:00:29;;;;;;;15.63;9.75;;;;;;;11.33;78.73;100668.16;2794184;85;21003;-68
2021/10/17 05:04:31;;;;;;;19.40;11.08;;;;;;;11.36;78.62;100666.57;2794318;84;21078;-68
2021/10/17 05:08:33;;;;;;;8.63;7.53;;;;;;;11.34;78.71;100666.31;2794176;84;21031;-69
2021/10/17 05:12:34;;;;;;;16.20;9.78;;;;;;;11.36;78.76;100665.23;2793866;84;21102;-69
2021/10/17 05:16:36;;;;;;;12.13;8.68;;;;;;;11.32;78.50;100668.26;2794121;84;21062;-69
2021/10/17 05:20:37;;;;;;;13.03;8.75;;;;;;;11.29;77.92;100664.02;2793767;85;20995;-69
2021/10/17 05:24:39;;;;;;;13.18;8.88;;;;;;;11.23;78.14;100668.03;2795603;84;20999;-70
2021/10/17 05:28:41;;;;;;;13.62;9.18;;;;;;;11.20;78.04;100656.30;2794974;84;21066;-68
2021/10/17 05:32:42;;;;;;;11.73;8.88;;;;;;;11.24;78.07;100664.40;2796650;85;21013;-68
2021/10/17 05:36:44;;;;;;;15.72;10.58;;;;;;;11.23;77.99;100670.69;2795093;85;21050;-68
2021/10/17 05:40:45;;;;;;;14.18;8.70;;;;;;;11.25;78.07;100675.41;2794028;85;21046;-68
2021/10/17 05:44:47;;;;;;;12.73;8.78;;;;;;;11.28;78.20;100674.30;2793892;85;21045;-68
2021/10/17 05:48:48;;;;;;;13.30;9.90;;;;;;;11.23;77.37;100673.36;2794147;84;21003;-68
2021/10/17 05:52:50;;;;;;;24.52;9.43;;;;;;;11.05;76.98;100681.45;2766826;85;21046;-68
2021/10/17 05:56:52;;;;;;;14.38;9.73;;;;;;;11.05;78.31;100682.78;2780968;85;21034;-68
2021/10/17 06:00:54;;;;;;;17.50;9.40;;;;;;;11.13;78.72;100685.21;2781030;85;21682;-68
2021/10/17 06:04:55;;;;;;;13.05;9.15;;;;;;;11.15;77.82;100675.75;2782332;85;21028;-68
2021/10/17 06:08:58;;;;;;;13.83;9.65;;;;;;;11.19;77.66;100684.36;2783089;85;20959;-68
2021/10/17 06:13:00;;;;;;;13.53;8.38;;;;;;;11.26;78.31;100677.11;2782297;85;20968;-68
2021/10/17 06:17:02;;;;;;;12.13;7.65;;;;;;;11.26;78.19;100689.09;2780865;85;21066;-68
2021/10/17 06:21:07;;;;;;;14.58;9.08;;;;;;;11.34;78.38;100683.63;2781242;85;20979;-68
2021/10/17 06:25:09;;;;;;;9.88;8.60;;;;;;;11.46;78.87;100686.66;2781458;85;21006;-68
2021/10/17 06:29:13;;;;;;;12.65;7.53;;;;;;;11.52;77.99;100693.33;2744378;85;21058;-68
2021/10/17 06:33:15;;;;;;;12.85;7.62;;;;;;;11.52;78.37;100690.67;2780865;85;21023;-68
2021/10/17 06:37:16;;;;;;;15.25;9.53;;;;;;;11.60;77.66;100687.39;2782468;85;21431;-68
2021/10/17 06:41:18;;;;;;;50.80;30.88;;;;;;;11.58;76.52;100699.49;2781530;85;21066;-68
2021/10/17 06:45:20;;;;;;;20.12;11.43;;;;;;;11.54;77.56;100704.20;2782431;85;21007;-68
2021/10/17 06:49:22;;;;;;;13.62;8.80;;;;;;;11.57;77.42;100703.12;2782825;85;21082;-68
2021/10/17 06:53:23;;;;;;;19.92;13.58;;;;;;;11.58;78.02;100700.33;2762909;85;21067;-69
2021/10/17 06:57:24;;;;;;;14.28;11.28;;;;;;;11.62;77.42;100709.43;2781447;85;21007;-68
2021/10/17 07:01:26;;;;;;;17.23;13.95;;;;;;;11.66;77.73;100709.55;2782011;85;21118;-68
2021/10/17 07:05:27;;;;;;;16.48;12.28;;;;;;;11.70;78.25;100713.18;2782642;85;21049;-68
2021/10/17 07:09:29;;;;;;;20.45;14.78;;;;;;;11.88;78.90;100714.48;2783056;85;21095;-67
2021/10/17 07:13:31;;;;;;;24.75;13.90;;;;;;;11.88;77.78;100723.30;2782016;84;21073;-67
2021/10/17 07:17:32;;;;;;;15.03;10.98;;;;;;;11.75;76.24;100726.11;2781749;85;22392;-68
2021/10/17 07:21:34;;;;;;;12.20;9.60;;;;;;;11.77;77.76;100723.34;2754649;86;21658;-68
2021/10/17 07:25:36;;;;;;;9.85;7.55;;;;;;;11.84;78.45;100726.73;2774990;85;21062;-68
2021/10/17 07:29:37;;;;;;;13.48;8.30;;;;;;;11.86;77.66;100727.45;2781499;85;21097;-68
2021/10/17 07:33:39;;;;;;;11.25;8.50;;;;;;;11.92;77.92;100733.24;2781428;85;21073;-67
2021/10/17 07:37:41;;;;;;;12.47;8.08;;;;;;;12.05;77.40;100731.80;2783473;85;21030;-68
2021/10/17 07:41:47;;;;;;;10.95;8.38;;;;;;;12.11;77.79;100734.81;2783624;85;21058;-67
2021/10/17 07:45:46;;;;;;;11.78;8.75;;;;;;;12.21;77.20;100736.24;2783066;85;21059;-66
2021/10/17 07:49:49;;;;;;;13.45;9.43;;;;;;;12.28;77.20;100732.13;2783769;85;22246;-66
2021/10/17 07:53:51;;;;;;;15.32;9.43;;;;;;;12.43;77.08;100732.67;2759669;85;21019;-66
2021/10/17 07:57:53;;;;;;;12.23;8.98;;;;;;;12.52;76.94;100727.05;2781868;85;21594;-66
2021/10/17 08:01:55;;;;;;;14.23;9.05;;;;;;;12.60;77.33;100732.23;2783688;85;21054;-66
2021/10/17 08:05:57;;;;;;;12.75;10.50;;;;;;;12.68;77.15;100726.61;2783749;85;21062;-66
2021/10/17 08:10:00;;;;;;;14.35;8.93;;;;;;;12.77;76.37;100723.66;2783532;85;21718;-68
2021/10/17 08:14:02;;;;;;;24.15;10.58;;;;;;;12.96;75.37;100724.77;2783201;85;21079;-67
2021/10/17 08:18:05;;;;;;;13.50;8.73;;;;;;;12.99;74.49;100729.38;2781490;85;21081;-66
2021/10/17 08:22:07;;;;;;;13.88;9.55;;;;;;;13.00;73.00;100727.05;2780994;85;21035;-67
2021/10/17 08:26:09;;;;;;;26.75;13.05;;;;;;;13.08;74.31;100725.54;2781720;85;21075;-66
2021/10/17 08:30:12;;;;;;;15.78;9.98;;;;;;;13.16;73.92;100737.73;2780365;85;21539;-66
2021/10/17 08:34:15;;;;;;;15.20;10.08;;;;;;;13.22;73.69;100743.05;2780293;85;21074;-67
2021/10/17 08:38:16;;;;;;;14.85;8.78;;;;;;;13.33;73.80;100747.47;2780628;84;21010;-66
2021/10/17 08:42:19;;;;;;;15.68;10.20;;;;;;;13.34;73.21;100742.48;2780179;84;21077;-66
2021/10/17 08:46:21;;;;;;;11.33;10.13;;;;;;;13.39;73.87;100742.95;2778982;84;20970;-66
2021/10/17 08:50:24;;;;;;;33.60;9.58;;;;;;;13.48;72.57;100743.50;2779101;85;21065;-67
2021/10/17 08:54:25;;;;;;;13.78;10.55;;;;;;;13.48;71.91;100740.00;2778226;84;21082;-66
2021/10/17 08:58:27;;;;;;;13.18;9.75;;;;;;;13.59;72.77;100745.73;2782736;85;21015;-66
2021/10/17 09:02:29;;;;;;;12.10;8.53;;;;;;;13.67;71.90;100745.90;2782417;85;21031;-66
2021/10/17 09:06:35;;;;;;;12.80;9.50;;;;;;;13.76;71.87;100747.78;2782803;85;21006;-67
2021/10/17 09:10:38;;;;;;;16.48;8.25;;;;;;;13.81;71.66;100746.02;2779477;84;21017;-66
2021/10/17 09:14:39;;;;;;;16.35;8.40;;;;;;;13.83;71.27;100748.92;2779298;85;21065;-66
2021/10/17 09:18:41;;;;;;;14.78;7.85;;;;;;;13.81;71.01;100744.20;2781692;85;21049;-66
2021/10/17 09:22:43;;;;;;;12.93;7.55;;;;;;;13.77;71.31;100743.27;2779312;85;21025;-66
2021/10/17 09:27:06;;;;;;;11.68;8.10;;;;;;;13.78;71.17;100743.14;2780075;85;21042;-66
2021/10/17 09:31:18;;;;;;;14.68;8.93;;;;;;;13.75;70.59;100744.72;2782715;85;21003;-68
2021/10/17 09:35:23;;;;;;;14.13;8.60;;;;;;;13.77;71.30;100737.91;2782525;84;21031;-67
2021/10/17 09:39:33;;;;;;;18.73;10.30;;;;;;;13.83;71.56;100740.03;2730087;85;21046;-68
2021/10/17 09:43:35;;;;;;;17.27;8.88;;;;;;;13.98;71.59;100737.84;2733509;87;21069;-68
2021/10/17 09:47:38;;;;;;;12.00;7.97;;;;;;;14.07;71.77;100737.01;2641605;89;21564;-68
2021/10/17 09:51:40;;;;;;;16.90;7.60;;;;;;;14.05;71.35;100738.12;2650322;88;21585;-66
2021/10/17 09:55:52;;;;;;;11.08;7.85;;;;;;;14.06;69.73;100742.52;2751954;86;21077;-66
2021/10/17 09:59:54;;;;;;;9.10;6.15;;;;;;;14.03;70.04;100736.94;2740129;86;21097;-67
2021/10/17 10:03:59;;;;;;;12.60;6.30;;;;;;;14.08;68.32;100735.20;2737068;86;21034;-66
2021/10/17 10:08:03;;;;;;;12.47;5.53;;;;;;;14.02;68.91;100736.58;2737274;85;21007;-66
2021/10/17 10:12:08;;;;;;;8.88;5.12;;;;;;;14.05;68.07;100733.62;2737187;86;21061;-67
2021/10/17 10:16:10;;;;;;;7.80;4.80;;;;;;;14.04;67.96;100731.94;2737162;86;21037;-67
2021/10/17 10:20:13;;;;;;;9.90;4.53;;;;;;;14.07;67.11;100729.49;2737052;86;21677;-67
2021/10/17 10:24:18;;;;;;;5.47;3.87;;;;;;;14.00;66.21;100724.67;2737128;86;21058;-66
2021/10/17 10:28:21;;;;;;;10.10;5.30;;;;;;;13.94;65.51;100727.05;2737096;87;20975;-66
2021/10/17 10:32:27;;;;;;;9.05;6.03;;;;;;;14.03;65.87;100723.56;2737417;86;21038;-67
2021/10/17 10:36:42;;;;;;;8.03;4.95;;;;;;;13.99;64.79;100723.49;2736922;87;21081;-67
2021/10/17 10:40:49;;;;;;;5.95;4.55;;;;;;;14.00;65.76;100720.66;2737101;87;21057;-67
2021/10/17 10:44:51;;;;;;;11.28;6.33;;;;;;;14.04;64.98;100712.36;2731902;85;21034;-67
2021/10/17 10:48:53;;;;;;;11.00;5.67;;;;;;;14.03;64.68;100721.36;2736938;86;21069;-67
2021/10/17 10:52:55;;;;;;;8.55;5.53;;;;;;;14.01;64.77;100720.19;2737444;86;21105;-67
2021/10/17 10:56:57;;;;;;;12.05;6.47;;;;;;;14.03;64.67;100723.56;2738011;86;21042;-67
2021/10/17 11:00:59;;;;;;;12.98;5.85;;;;;;;13.99;65.40;100716.80;2737768;86;21035;-68
2021/10/17 11:05:20;;;;;;;6.67;4.20;;;;;;;14.01;65.31;100717.51;2737500;86;21046;-67
2021/10/17 11:09:24;;;;;;;10.08;5.40;;;;;;;14.00;63.50;100719.83;2733256;85;21005;-67
2021/10/17 11:13:49;;;;;;;7.70;5.67;;;;;;;13.78;63.70;100716.41;2734804;87;20990;-67
2021/10/17 11:17:54;;;;;;;7.75;4.92;;;;;;;13.75;63.91;100713.97;2734780;86;21081;-66
2021/10/17 11:22:03;;;;;;;15.33;7.27;;;;;;;13.83;64.95;100714.16;2735084;86;21030;-67
2021/10/17 11:26:11;;;;;;;9.05;5.67;;;;;;;13.94;65.96;100706.98;2734984;86;21526;-68
2021/10/17 11:30:36;;;;;;;6.90;4.85;;;;;;;13.97;64.18;100704.89;2734497;86;21452;-67
2021/10/17 11:34:39;;;;;;;7.00;4.45;;;;;;;13.98;65.33;100699.07;2734953;86;21073;-68
2021/10/17 11:38:42;;;;;;;9.10;4.80;;;;;;;13.89;62.54;100693.19;2734715;87;21104;-67
2021/10/17 11:42:58;;;;;;;10.82;4.83;;;;;;;13.80;63.55;100687.70;2735083;87;21059;-67
2021/10/17 11:47:02;;;;;;;11.08;5.90;;;;;;;13.90;64.15;100689.53;2735680;86;21054;-66
2021/10/17 11:51:08;;;;;;;9.20;6.12;;;;;;;14.03;64.83;100674.08;2735098;87;21091;-67
2021/10/17 11:55:10;;;;;;;6.95;4.58;;;;;;;14.11;64.04;100675.55;2709005;87;21650;-66
2021/10/17 11:59:14;;;;;;;6.70;4.35;;;;;;;14.15;63.22;100678.80;2697544;87;21058;-67
2021/10/17 12:03:22;;;;;;;9.85;4.10;;;;;;;14.19;62.96;100672.19;2697818;87;21067;-66
2021/10/17 12:07:24;;;;;;;8.50;4.75;;;;;;;14.19;62.29;100670.84;2687952;87;21050;-67
2021/10/17 12:11:26;;;;;;;10.82;5.97;;;;;;;14.17;63.04;100667.98;2688712;87;21042;-68
2021/10/17 12:15:30;;;;;;;13.03;4.45;;;;;;;14.10;62.96;100663.16;2688817;87;21074;-66
2021/10/17 12:19:32;;;;;;;12.33;5.08;;;;;;;14.13;63.60;100664.73;2688572;87;21066;-66
2021/10/17 12:23:34;;;;;;;8.05;4.87;;;;;;;14.22;63.94;100663.87;2688840;88;21127;-66
2021/10/17 12:27:39;;;;;;;8.70;4.78;;;;;;;14.32;64.05;100658.52;2688919;87;21113;-66
2021/10/17 12:31:53;;;;;;;7.13;5.00;;;;;;;14.41;63.52;100654.16;2669156;88;21086;-66
2021/10/17 12:35:55;;;;;;;17.42;5.83;;;;;;;14.52;62.48;100650.48;2688520;87;21495;-66
2021/10/17 12:40:05;;;;;;;8.25;4.67;;;;;;;14.61;61.97;100648.30;2686509;88;21118;-66
2021/10/17 12:44:10;;;;;;;4.85;3.17;;;;;;;14.73;61.48;100645.47;2672911;87;21042;-66
2021/10/17 12:48:11;;;;;;;9.48;4.58;;;;;;;14.80;61.65;100639.91;2665297;88;21150;-66
2021/10/17 12:52:32;;;;;;;3.85;3.08;;;;;;;14.77;61.15;100637.02;2678536;87;21031;-67
2021/10/17 12:56:36;;;;;;;6.90;3.70;;;;;;;14.76;60.58;100636.66;2714907;87;21357;-66
2021/10/17 13:00:39;;;;;;;7.53;3.67;;;;;;;14.76;60.21;100626.47;2734432;86;21105;-66
2021/10/17 13:04:49;;;;;;;5.15;3.70;;;;;;;14.63;59.37;100638.28;2733841;86;21084;-66
2021/10/17 13:08:52;;;;;;;8.80;4.12;;;;;;;14.62;60.26;100633.06;2734007;86;21124;-66
2021/10/17 13:12:54;;;;;;;7.37;4.78;;;;;;;14.65;60.56;100628.27;2735423;86;21047;-65
2021/10/17 13:16:56;;;;;;;7.05;3.95;;;;;;;14.78;61.84;100636.02;2735716;87;21033;-66
2021/10/17 13:20:58;;;;;;;25.08;4.42;;;;;;;14.83;60.33;100630.24;2736508;85;21041;-66
2021/10/17 13:25:00;;;;;;;10.03;3.98;;;;;;;14.78;60.36;100630.67;2737463;85;21053;-66
2021/10/17 13:29:01;;;;;;;9.13;4.47;;;;;;;14.78;60.67;100637.88;2737917;85;21050;-64
2021/10/17 13:33:04;;;;;;;10.03;4.08;;;;;;;14.74;59.35;100633.77;2737982;87;21245;-68
2021/10/17 13:37:05;;;;;;;8.83;3.50;;;;;;;14.71;59.66;100636.27;2738244;87;21038;-67
2021/10/17 13:41:07;;;;;;;4.97;3.00;;;;;;;14.73;59.14;100632.09;2738343;85;21053;-68
2021/10/17 13:45:10;;;;;;;10.18;3.72;;;;;;;14.74;60.55;100630.61;2738579;87;21077;-68
2021/10/17 13:49:12;;;;;;;5.33;3.65;;;;;;;14.75;60.22;100630.13;2753551;85;21097;-68
2021/10/17 13:53:15;;;;;;;4.45;3.90;;;;;;;14.74;60.82;100628.41;2753368;85;29366;-68
2021/10/17 13:57:16;;;;;;;6.50;3.52;;;;;;;14.68;59.92;100624.48;2752483;86;21114;-68
2021/10/17 14:01:18;;;;;;;6.03;3.77;;;;;;;14.51;60.31;100616.67;2728679;87;21044;-68
2021/10/17 14:05:21;;;;;;;6.85;3.77;;;;;;;14.49;59.27;100609.28;2729154;87;21035;-68
2021/10/17 14:09:26;;;;;;;11.05;4.33;;;;;;;14.50;58.56;100602.46;2728739;87;21063;-68
2021/10/17 14:13:29;;;;;;;6.27;3.73;;;;;;;14.56;60.10;100615.77;2729284;87;21052;-68
2021/10/17 14:17:30;;;;;;;3.92;3.33;;;;;;;14.65;59.89;100604.18;2729011;87;21075;-68
2021/10/17 14:21:32;;;;;;;5.22;2.55;;;;;;;14.65;59.40;100609.53;2728772;87;21135;-68
2021/10/17 14:25:34;;;;;;;3.58;2.37;;;;;;;14.55;59.00;100614.08;2728854;87;21036;-68
2021/10/17 14:29:36;;;;;;;3.20;2.42;;;;;;;14.39;59.04;100611.49;2729104;87;20993;-68
2021/10/17 14:33:38;;;;;;;5.87;2.83;;;;;;;14.26;59.26;100614.95;2728930;87;21048;-68
2021/10/17 14:37:39;;;;;;;3.15;2.17;;;;;;;14.17;60.44;100618.48;2728911;87;21115;-68
2021/10/17 14:41:42;;;;;;;6.75;2.17;;;;;;;14.10;59.58;100617.69;2729169;87;20972;-68
2021/10/17 14:45:44;;;;;;;3.83;2.10;;;;;;;14.02;60.13;100615.37;2729173;87;21079;-68
2021/10/17 14:49:46;;;;;;;5.55;2.52;;;;;;;13.94;61.10;100619.59;2729119;87;20996;-67
2021/10/17 14:53:49;;;;;;;4.28;2.70;;;;;;;13.85;61.32;100625.77;2728848;87;21135;-67
2021/10/17 14:57:50;;;;;;;9.28;3.58;;;;;;;13.80;62.17;100620.86;2728174;86;21577;-68
2021/10/17 15:01:52;;;;;;;6.00;2.85;;;;;;;13.76;62.47;100628.81;2728592;86;21051;-68
2021/10/17 15:05:55;;;;;;;9.43;3.40;;;;;;;13.77;63.35;100628.30;2728669;87;21070;-68
2021/10/17 15:09:57;;;;;;;6.33;3.20;;;;;;;13.74;63.13;100624.06;2728539;87;21000;-68
2021/10/17 15:13:59;;;;;;;5.28;3.00;;;;;;;13.71;64.22;100625.20;2728839;87;21019;-68
2021/10/17 15:18:00;;;;;;;3.58;2.67;;;;;;;13.67;64.03;100616.25;2728467;87;21091;-68
2021/10/17 15:22:02;;;;;;;7.58;3.08;;;;;;;13.58;64.65;100626.45;2728621;87;21091;-68
2021/10/17 15:26:04;;;;;;;3.60;2.80;;;;;;;13.52;65.04;100630.00;2728796;87;21059;-68
2021/10/17 15:30:08;;;;;;;10.40;4.87;;;;;;;13.49;65.85;100636.95;2728311;87;21040;-68
2021/10/17 15:34:11;;;;;;;8.20;5.03;;;;;;;13.39;65.58;100634.73;2732069;87;21036;-68
2021/10/17 15:38:13;;;;;;;6.60;3.27;;;;;;;13.32;65.80;100637.56;2728994;87;21040;-68
2021/10/17 15:42:14;;;;;;;6.55;4.62;;;;;;;13.21;65.53;100640.71;2728920;87;21083;-68
2021/10/17 15:46:19;;;;;;;4.70;3.37;;;;;;;13.08;65.36;100637.41;2728589;87;21043;-68
2021/10/17 15:50:23;;;;;;;7.75;4.28;;;;;;;12.99;65.41;100644.39;2728648;87;21032;-68
2021/10/17 15:54:27;;;;;;;12.20;6.10;;;;;;;12.96;65.34;100640.66;2730332;86;21040;-68
2021/10/17 15:58:29;;;;;;;8.13;5.47;;;;;;;12.85;65.48;100640.25;2737343;87;21047;-68
2021/10/17 16:02:31;;;;;;;6.40;5.10;;;;;;;12.79;65.80;100648.80;2737245;87;21066;-68
2021/10/17 16:06:33;;;;;;;12.37;7.15;;;;;;;12.71;65.99;100647.61;2737640;87;21106;-68
2021/10/17 16:10:34;;;;;;;10.63;5.90;;;;;;;12.60;66.46;100654.84;2737758;87;21043;-68
2021/10/17 16:14:36;;;;;;;13.55;6.78;;;;;;;12.56;66.92;100651.58;2737618;87;21004;-68
2021/10/17 16:18:38;;;;;;;7.33;6.15;;;;;;;12.55;67.12;100648.55;2737916;87;21035;-68
2021/10/17 16:22:40;;;;;;;9.40;7.08;;;;;;;12.55;67.55;100643.21;2737780;87;21055;-68
2021/10/17 16:26:42;;;;;;;14.45;7.42;;;;;;;12.59;67.41;100650.01;2737672;87;21071;-68
2021/10/17 16:30:54;;;;;;;10.18;5.75;;;;;;;12.62;67.52;100662.22;2737518;87;21114;-68
2021/10/17 16:34:48;;;;;;;17.65;5.83;;;;;;;12.61;67.54;100657.39;2743619;86;21091;-68
2021/10/17 16:38:52;;;;;;;10.60;5.35;;;;;;;12.60;67.56;100657.03;2746527;86;21059;-68
2021/10/17 16:42:53;;;;;;;12.25;5.30;;;;;;;12.60;67.55;100662.38;2749277;86;21118;-68
2021/10/17 16:46:55;;;;;;;14.63;7.08;;;;;;;12.62;67.67;100663.09;2749465;86;21079;-68
2021/10/17 16:50:57;;;;;;;17.25;8.18;;;;;;;12.63;67.92;100663.44;2719815;86;21024;-68
2021/10/17 16:55:00;;;;;;;13.48;8.18;;;;;;;12.67;68.09;100663.53;2745758;86;21024;-68
2021/10/17 16:59:01;;;;;;;13.62;7.53;;;;;;;12.70;68.03;100665.94;2745564;86;21115;-68
2021/10/17 17:03:04;;;;;;;8.55;6.22;;;;;;;12.71;67.92;100672.97;2745417;86;22271;-68
2021/10/17 17:07:06;;;;;;;8.93;7.28;;;;;;;12.69;67.89;100673.59;2745455;86;21071;-68
2021/10/17 17:11:08;;;;;;;12.43;6.17;;;;;;;12.65;67.98;100680.64;2745621;86;21091;-68
2021/10/17 17:15:10;;;;;;;10.70;6.35;;;;;;;12.61;68.03;100686.75;2745146;86;21047;-68
2021/10/17 17:19:12;;;;;;;10.82;7.80;;;;;;;12.61;68.21;100685.89;2745291;86;21040;-68
2021/10/17 17:23:14;;;;;;;8.80;7.03;;;;;;;12.60;68.66;100685.53;2745223;86;21059;-68
2021/10/17 17:27:16;;;;;;;11.15;6.92;;;;;;;12.50;68.96;100688.13;2745383;86;21050;-68
2021/10/17 17:31:19;;;;;;;16.37;8.38;;;;;;;12.38;69.26;100690.00;2745735;86;21098;-68
2021/10/17 17:35:25;;;;;;;13.83;5.33;;;;;;;12.29;69.28;100692.94;2745239;86;21055;-68
2021/10/17 17:39:25;;;;;;;9.15;6.03;;;;;;;12.11;69.86;100689.98;2745425;85;21094;-68
2021/10/17 17:43:27;;;;;;;14.65;7.45;;;;;;;11.98;70.36;100690.95;2745122;86;21068;-68
2021/10/17 17:47:36;;;;;;;8.83;7.35;;;;;;;11.93;70.29;100697.14;2745590;86;21100;-68
2021/10/17 17:51:35;;;;;;;;;;;;;;;11.80;70.42;100693.77;2747447;86;21890;-68
2021/10/17 17:55:37;;;;;;;10.35;7.15;;;;;;;11.66;70.77;100694.89;2739428;86;20106;-68
2021/10/17 17:59:38;;;;;;;14.87;7.12;;;;;;;11.56;71.07;100692.11;2729638;85;21067;-69
2021/10/17 18:03:40;;;;;;;12.33;6.87;;;;;;;11.49;71.39;100691.74;2736962;84;21047;-69
2021/10/17 18:07:42;;;;;;;12.85;8.75;;;;;;;11.53;71.52;100688.36;2736395;87;21030;-69
2021/10/17 18:11:43;;;;;;;17.50;9.55;;;;;;;11.63;71.17;100692.47;2737125;87;21026;-68
2021/10/17 18:15:45;;;;;;;13.25;8.55;;;;;;;11.67;71.08;100687.25;2736971;87;21022;-69
2021/10/17 18:19:47;;;;;;;9.18;7.90;;;;;;;11.70;71.08;100691.00;2737006;87;21073;-69
2021/10/17 18:23:48;;;;;;;7.85;6.33;;;;;;;11.73;71.17;100700.08;2737096;87;21003;-68
2021/10/17 18:27:51;;;;;;;25.12;9.10;;;;;;;11.77;71.43;100696.19;2737757;87;20991;-69
2021/10/17 18:31:52;;;;;;;13.72;7.25;;;;;;;11.78;71.73;100690.38;2737421;84;21049;-69
2021/10/17 18:35:56;;;;;;;9.08;7.70;;;;;;;11.82;71.76;100686.02;2741874;85;21019;-69
2021/10/17 18:39:58;;;;;;;12.43;6.62;;;;;;;11.86;71.48;100680.80;2737763;87;21046;-70